sensor_id;sensor_type;location;lat;lon;timestamp;P1;durP1;ratioP1;P2;durP2;ratioP2
54665;SDS011;40566;50.006;36.180;2022-12-11T00:00:23;77.88;;;17.48;;
54665;SDS011;40566;50.006;36.180;2022-12-11T00:05:24;99.38;;;14.38;;
54665;SDS011;40566;50.006;36.180;2022-12-11T00:10:25;85.75;;;15.63;;
54665;SDS011;40566;50.006;36.180;2022-12-11T00:15:26;42.72;;;11.60;;
54665;SDS011;40566;50.006;36.180;2022-12-11T00:20:27;159.10;;;16.25;;
54665;SDS011;40566;50.006;36.180;2022-12-11T00:25:27;94.18;;;14.85;;
54665;SDS011;40566;50.006;36.180;2022-12-11T00:30:28;111.90;;;14.45;;
54665;SDS011;40566;50.006;36.180;2022-12-11T00:35:28;182.95;;;18.00;;
54665;SDS011;40566;50.006;36.180;2022-12-11T00:40:31;150.70;;;14.13;;
54665;SDS011;40566;50.006;36.180;2022-12-11T00:45:37;283.70;;;17.80;;
54665;SDS011;40566;50.006;36.180;2022-12-11T00:50:40;139.05;;;13.60;;
54665;SDS011;40566;50.006;36.180;2022-12-11T00:55:40;143.68;;;17.30;;
54665;SDS011;40566;50.006;36.180;2022-12-11T01:00:42;249.30;;;16.48;;
54665;SDS011;40566;50.006;36.180;2022-12-11T01:05:50;313.75;;;16.85;;
54665;SDS011;40566;50.006;36.180;2022-12-11T01:10:59;383.38;;;20.42;;
54665;SDS011;40566;50.006;36.180;2022-12-11T01:16:08;318.05;;;23.00;;
54665;SDS011;40566;50.006;36.180;2022-12-11T01:21:11;306.05;;;23.42;;
54665;SDS011;40566;50.006;36.180;2022-12-11T01:26:13;480.30;;;29.25;;
54665;SDS011;40566;50.006;36.180;2022-12-11T01:31:14;478.85;;;28.58;;
54665;SDS011;40566;50.006;36.180;2022-12-11T01:36:17;414.15;;;23.77;;
54665;SDS011;40566;50.006;36.180;2022-12-11T01:41:19;435.88;;;24.42;;
54665;SDS011;40566;50.006;36.180;2022-12-11T01:46:21;373.98;;;21.65;;
54665;SDS011;40566;50.006;36.180;2022-12-11T01:51:21;326.48;;;19.60;;
54665;SDS011;40566;50.006;36.180;2022-12-11T01:56:23;536.45;;;33.00;;
54665;SDS011;40566;50.006;36.180;2022-12-11T02:01:25;477.83;;;28.50;;
54665;SDS011;40566;50.006;36.180;2022-12-11T02:06:41;400.65;;;24.45;;
54665;SDS011;40566;50.006;36.180;2022-12-11T02:12:06;484.67;;;28.05;;
54665;SDS011;40566;50.006;36.180;2022-12-11T02:17:21;416.60;;;24.77;;
54665;SDS011;40566;50.006;36.180;2022-12-11T02:22:44;518.78;;;32.80;;
54665;SDS011;40566;50.006;36.180;2022-12-11T02:27:50;477.02;;;31.67;;
54665;SDS011;40566;50.006;36.180;2022-12-11T02:32:57;472.38;;;29.88;;
54665;SDS011;40566;50.006;36.180;2022-12-11T02:38:00;444.67;;;26.38;;
54665;SDS011;40566;50.006;36.180;2022-12-11T02:43:03;417.13;;;25.73;;
54665;SDS011;40566;50.006;36.180;2022-12-11T02:48:08;307.83;;;20.67;;
54665;SDS011;40566;50.006;36.180;2022-12-11T02:53:11;197.48;;;18.70;;
54665;SDS011;40566;50.006;36.180;2022-12-11T02:58:16;117.38;;;16.30;;
54665;SDS011;40566;50.006;36.180;2022-12-11T03:03:21;92.13;;;16.08;;
54665;SDS011;40566;50.006;36.180;2022-12-11T03:08:22;165.52;;;17.00;;
54665;SDS011;40566;50.006;36.180;2022-12-11T03:13:23;90.28;;;16.27;;
54665;SDS011;40566;50.006;36.180;2022-12-11T03:18:33;121.47;;;15.02;;
54665;SDS011;40566;50.006;36.180;2022-12-11T03:23:46;259.50;;;19.08;;
54665;SDS011;40566;50.006;36.180;2022-12-11T03:29:06;113.75;;;18.20;;
54665;SDS011;40566;50.006;36.180;2022-12-11T03:34:23;122.53;;;18.02;;
54665;SDS011;40566;50.006;36.180;2022-12-11T03:39:30;126.63;;;17.00;;
54665;SDS011;40566;50.006;36.180;2022-12-11T03:44:34;84.00;;;15.43;;
54665;SDS011;40566;50.006;36.180;2022-12-11T03:49:38;112.65;;;16.80;;
54665;SDS011;40566;50.006;36.180;2022-12-11T03:54:42;156.45;;;16.67;;
54665;SDS011;40566;50.006;36.180;2022-12-11T03:59:45;233.02;;;19.20;;
54665;SDS011;40566;50.006;36.180;2022-12-11T04:04:46;241.32;;;18.25;;
54665;SDS011;40566;50.006;36.180;2022-12-11T04:09:46;289.45;;;21.75;;
54665;SDS011;40566;50.006;36.180;2022-12-11T04:14:47;249.80;;;19.60;;
54665;SDS011;40566;50.006;36.180;2022-12-11T04:20:04;194.95;;;18.55;;
54665;SDS011;40566;50.006;36.180;2022-12-11T04:25:24;139.55;;;18.50;;
54665;SDS011;40566;50.006;36.180;2022-12-11T04:30:24;91.40;;;17.60;;
54665;SDS011;40566;50.006;36.180;2022-12-11T04:35:25;81.05;;;18.23;;
54665;SDS011;40566;50.006;36.180;2022-12-11T04:40:26;70.20;;;17.75;;
54665;SDS011;40566;50.006;36.180;2022-12-11T04:45:27;73.78;;;17.98;;
54665;SDS011;40566;50.006;36.180;2022-12-11T04:50:27;64.43;;;18.52;;
54665;SDS011;40566;50.006;36.180;2022-12-11T04:55:28;73.03;;;18.90;;
54665;SDS011;40566;50.006;36.180;2022-12-11T05:00:29;84.20;;;23.65;;
54665;SDS011;40566;50.006;36.180;2022-12-11T05:05:29;85.85;;;20.17;;
54665;SDS011;40566;50.006;36.180;2022-12-11T05:10:30;76.88;;;18.08;;
54665;SDS011;40566;50.006;36.180;2022-12-11T05:15:30;60.70;;;17.70;;
54665;SDS011;40566;50.006;36.180;2022-12-11T05:20:31;73.43;;;19.63;;
54665;SDS011;40566;50.006;36.180;2022-12-11T05:25:32;80.22;;;19.80;;
54665;SDS011;40566;50.006;36.180;2022-12-11T05:30:32;96.55;;;21.13;;
54665;SDS011;40566;50.006;36.180;2022-12-11T05:35:33;110.70;;;22.05;;
54665;SDS011;40566;50.006;36.180;2022-12-11T05:40:33;97.13;;;23.80;;
54665;SDS011;40566;50.006;36.180;2022-12-11T05:45:34;92.18;;;22.83;;
54665;SDS011;40566;50.006;36.180;2022-12-11T05:50:35;103.78;;;24.63;;
54665;SDS011;40566;50.006;36.180;2022-12-11T05:55:36;129.90;;;26.15;;
54665;SDS011;40566;50.006;36.180;2022-12-11T06:00:39;70.60;;;19.85;;
54665;SDS011;40566;50.006;36.180;2022-12-11T06:05:41;58.75;;;18.60;;
54665;SDS011;40566;50.006;36.180;2022-12-11T06:10:46;70.35;;;19.10;;
54665;SDS011;40566;50.006;36.180;2022-12-11T06:15:47;65.68;;;19.15;;
54665;SDS011;40566;50.006;36.180;2022-12-11T06:20:48;66.55;;;19.10;;
54665;SDS011;40566;50.006;36.180;2022-12-11T06:25:49;66.53;;;20.23;;
54665;SDS011;40566;50.006;36.180;2022-12-11T06:30:49;68.80;;;19.83;;
54665;SDS011;40566;50.006;36.180;2022-12-11T06:35:50;69.32;;;20.70;;
54665;SDS011;40566;50.006;36.180;2022-12-11T06:40:58;68.50;;;20.13;;
54665;SDS011;40566;50.006;36.180;2022-12-11T06:46:03;74.05;;;20.63;;
54665;SDS011;40566;50.006;36.180;2022-12-11T06:51:05;65.35;;;20.92;;
54665;SDS011;40566;50.006;36.180;2022-12-11T06:56:08;57.65;;;19.48;;
54665;SDS011;40566;50.006;36.180;2022-12-11T07:01:21;62.70;;;20.50;;
54665;SDS011;40566;50.006;36.180;2022-12-11T07:06:24;70.15;;;22.30;;
54665;SDS011;40566;50.006;36.180;2022-12-11T07:11:25;69.05;;;22.33;;
54665;SDS011;40566;50.006;36.180;2022-12-11T07:16:26;71.47;;;23.00;;
54665;SDS011;40566;50.006;36.180;2022-12-11T07:21:27;65.47;;;22.15;;
54665;SDS011;40566;50.006;36.180;2022-12-11T07:26:28;59.53;;;21.65;;
54665;SDS011;40566;50.006;36.180;2022-12-11T07:31:29;53.50;;;20.00;;
54665;SDS011;40566;50.006;36.180;2022-12-11T07:36:30;59.88;;;19.98;;
54665;SDS011;40566;50.006;36.180;2022-12-11T07:41:31;58.75;;;21.25;;
54665;SDS011;40566;50.006;36.180;2022-12-11T07:46:32;53.10;;;20.63;;
54665;SDS011;40566;50.006;36.180;2022-12-11T07:51:33;51.20;;;20.90;;
54665;SDS011;40566;50.006;36.180;2022-12-11T07:56:35;52.55;;;20.42;;
54665;SDS011;40566;50.006;36.180;2022-12-11T08:01:36;56.67;;;20.35;;
54665;SDS011;40566;50.006;36.180;2022-12-11T08:06:38;54.35;;;19.83;;
54665;SDS011;40566;50.006;36.180;2022-12-11T08:11:39;60.28;;;19.80;;
54665;SDS011;40566;50.006;36.180;2022-12-11T08:16:40;57.58;;;20.65;;
54665;SDS011;40566;50.006;36.180;2022-12-11T08:21:42;53.67;;;19.38;;
54665;SDS011;40566;50.006;36.180;2022-12-11T08:26:43;51.75;;;19.98;;
54665;SDS011;40566;50.006;36.180;2022-12-11T08:31:43;62.28;;;22.98;;
54665;SDS011;40566;50.006;36.180;2022-12-11T08:36:44;54.97;;;20.27;;
54665;SDS011;40566;50.006;36.180;2022-12-11T08:41:45;44.75;;;18.23;;
54665;SDS011;40566;50.006;36.180;2022-12-11T08:46:45;56.05;;;21.00;;
54665;SDS011;40566;50.006;36.180;2022-12-11T08:51:46;49.53;;;19.17;;
54665;SDS011;40566;50.006;36.180;2022-12-11T08:56:47;54.58;;;19.45;;
54665;SDS011;40566;50.006;36.180;2022-12-11T09:01:47;46.75;;;18.10;;
54665;SDS011;40566;50.006;36.180;2022-12-11T09:06:48;43.60;;;17.70;;
54665;SDS011;40566;50.006;36.180;2022-12-11T09:11:49;45.30;;;17.15;;
54665;SDS011;40566;50.006;36.180;2022-12-11T09:16:50;40.13;;;17.05;;
54665;SDS011;40566;50.006;36.180;2022-12-11T09:21:51;42.80;;;16.25;;
54665;SDS011;40566;50.006;36.180;2022-12-11T09:26:52;47.20;;;16.95;;
54665;SDS011;40566;50.006;36.180;2022-12-11T09:31:53;49.85;;;17.15;;
54665;SDS011;40566;50.006;36.180;2022-12-11T09:36:54;56.42;;;17.60;;
54665;SDS011;40566;50.006;36.180;2022-12-11T09:47:01;48.58;;;17.05;;
54665;SDS011;40566;50.006;36.180;2022-12-11T10:08:05;39.33;;;15.63;;
54665;SDS011;40566;50.006;36.180;2022-12-11T10:18:31;47.95;;;17.70;;
54665;SDS011;40566;50.006;36.180;2022-12-11T10:23:35;47.58;;;16.48;;
54665;SDS011;40566;50.006;36.180;2022-12-11T10:28:42;45.58;;;17.67;;
54665;SDS011;40566;50.006;36.180;2022-12-11T10:34:02;45.75;;;18.50;;
54665;SDS011;40566;50.006;36.180;2022-12-11T10:39:15;40.97;;;16.45;;
54665;SDS011;40566;50.006;36.180;2022-12-11T10:49:24;43.55;;;18.25;;
54665;SDS011;40566;50.006;36.180;2022-12-11T10:54:34;44.33;;;18.92;;
54665;SDS011;40566;50.006;36.180;2022-12-11T11:04:42;39.03;;;15.40;;
54665;SDS011;40566;50.006;36.180;2022-12-11T11:09:44;39.50;;;15.77;;
54665;SDS011;40566;50.006;36.180;2022-12-11T11:14:45;39.05;;;13.93;;
54665;SDS011;40566;50.006;36.180;2022-12-11T11:19:46;38.55;;;15.82;;
54665;SDS011;40566;50.006;36.180;2022-12-11T11:24:54;34.60;;;14.27;;
54665;SDS011;40566;50.006;36.180;2022-12-11T11:29:58;38.72;;;16.08;;
54665;SDS011;40566;50.006;36.180;2022-12-11T11:35:49;43.97;;;16.02;;
54665;SDS011;40566;50.006;36.180;2022-12-11T11:40:29;41.67;;;14.13;;
54665;SDS011;40566;50.006;36.180;2022-12-11T11:50:46;32.25;;;12.20;;
54665;SDS011;40566;50.006;36.180;2022-12-11T11:55:56;34.08;;;12.65;;
54665;SDS011;40566;50.006;36.180;2022-12-11T12:01:18;33.55;;;12.10;;
54665;SDS011;40566;50.006;36.180;2022-12-11T12:11:32;30.42;;;11.52;;
54665;SDS011;40566;50.006;36.180;2022-12-11T12:22:56;30.45;;;11.15;;
54665;SDS011;40566;50.006;36.180;2022-12-11T12:27:37;22.60;;;9.98;;
54665;SDS011;40566;50.006;36.180;2022-12-11T12:48:21;29.20;;;11.32;;
54665;SDS011;40566;50.006;36.180;2022-12-11T12:53:25;23.33;;;10.18;;
54665;SDS011;40566;50.006;36.180;2022-12-11T13:03:36;27.83;;;13.38;;
54665;SDS011;40566;50.006;36.180;2022-12-11T13:08:54;27.25;;;10.95;;
54665;SDS011;40566;50.006;36.180;2022-12-11T13:14:02;32.95;;;11.57;;
54665;SDS011;40566;50.006;36.180;2022-12-11T13:24:28;25.63;;;10.77;;
54665;SDS011;40566;50.006;36.180;2022-12-11T13:34:36;24.85;;;9.95;;
54665;SDS011;40566;50.006;36.180;2022-12-11T13:39:39;22.23;;;9.50;;
54665;SDS011;40566;50.006;36.180;2022-12-11T13:44:46;25.45;;;9.60;;
54665;SDS011;40566;50.006;36.180;2022-12-11T13:49:48;23.48;;;8.73;;
54665;SDS011;40566;50.006;36.180;2022-12-11T13:54:54;23.60;;;9.63;;
54665;SDS011;40566;50.006;36.180;2022-12-11T13:59:58;21.10;;;8.38;;
54665;SDS011;40566;50.006;36.180;2022-12-11T14:05:03;21.45;;;9.57;;
54665;SDS011;40566;50.006;36.180;2022-12-11T14:10:08;21.83;;;9.13;;
54665;SDS011;40566;50.006;36.180;2022-12-11T14:15:13;24.60;;;9.23;;
54665;SDS011;40566;50.006;36.180;2022-12-11T14:20:19;20.38;;;8.48;;
54665;SDS011;40566;50.006;36.180;2022-12-11T14:25:25;25.83;;;10.25;;
54665;SDS011;40566;50.006;36.180;2022-12-11T14:30:27;26.05;;;9.88;;
54665;SDS011;40566;50.006;36.180;2022-12-11T14:35:31;25.23;;;10.68;;
54665;SDS011;40566;50.006;36.180;2022-12-11T14:40:36;31.30;;;10.38;;
54665;SDS011;40566;50.006;36.180;2022-12-11T14:45:41;21.73;;;8.80;;
54665;SDS011;40566;50.006;36.180;2022-12-11T14:50:47;24.13;;;9.48;;
54665;SDS011;40566;50.006;36.180;2022-12-11T14:55:51;17.55;;;8.00;;
54665;SDS011;40566;50.006;36.180;2022-12-11T15:01:19;20.05;;;8.00;;
54665;SDS011;40566;50.006;36.180;2022-12-11T15:11:29;19.13;;;8.35;;
54665;SDS011;40566;50.006;36.180;2022-12-11T15:16:32;19.80;;;8.68;;
54665;SDS011;40566;50.006;36.180;2022-12-11T15:21:36;21.70;;;8.95;;
54665;SDS011;40566;50.006;36.180;2022-12-11T15:26:39;23.00;;;8.52;;
54665;SDS011;40566;50.006;36.180;2022-12-11T15:31:44;22.38;;;8.75;;
54665;SDS011;40566;50.006;36.180;2022-12-11T15:36:44;20.25;;;8.48;;
54665;SDS011;40566;50.006;36.180;2022-12-11T15:41:45;19.33;;;7.60;;
54665;SDS011;40566;50.006;36.180;2022-12-11T15:46:46;21.75;;;9.02;;
54665;SDS011;40566;50.006;36.180;2022-12-11T15:51:46;20.55;;;8.45;;
54665;SDS011;40566;50.006;36.180;2022-12-11T15:56:47;20.73;;;8.73;;
54665;SDS011;40566;50.006;36.180;2022-12-11T16:01:48;18.95;;;7.68;;
54665;SDS011;40566;50.006;36.180;2022-12-11T16:06:48;18.23;;;7.88;;
54665;SDS011;40566;50.006;36.180;2022-12-11T16:11:50;21.42;;;8.15;;
54665;SDS011;40566;50.006;36.180;2022-12-11T16:16:51;19.17;;;7.63;;
54665;SDS011;40566;50.006;36.180;2022-12-11T16:21:51;24.52;;;10.30;;
54665;SDS011;40566;50.006;36.180;2022-12-11T16:26:52;20.98;;;8.35;;
54665;SDS011;40566;50.006;36.180;2022-12-11T16:31:52;17.80;;;7.95;;
54665;SDS011;40566;50.006;36.180;2022-12-11T16:36:55;19.67;;;7.88;;
54665;SDS011;40566;50.006;36.180;2022-12-11T16:41:57;17.80;;;7.30;;
54665;SDS011;40566;50.006;36.180;2022-12-11T16:46:57;21.27;;;7.15;;
54665;SDS011;40566;50.006;36.180;2022-12-11T16:51:58;18.65;;;6.88;;
54665;SDS011;40566;50.006;36.180;2022-12-11T16:56:59;17.45;;;7.43;;
54665;SDS011;40566;50.006;36.180;2022-12-11T17:01:59;15.90;;;6.68;;
54665;SDS011;40566;50.006;36.180;2022-12-11T17:07:00;17.13;;;6.75;;
54665;SDS011;40566;50.006;36.180;2022-12-11T17:12:00;22.45;;;7.97;;
54665;SDS011;40566;50.006;36.180;2022-12-11T17:17:01;25.73;;;9.00;;
54665;SDS011;40566;50.006;36.180;2022-12-11T17:22:02;20.90;;;7.75;;
54665;SDS011;40566;50.006;36.180;2022-12-11T17:27:03;23.42;;;8.15;;
54665;SDS011;40566;50.006;36.180;2022-12-11T17:32:04;18.67;;;6.43;;
54665;SDS011;40566;50.006;36.180;2022-12-11T17:37:05;20.38;;;7.25;;
54665;SDS011;40566;50.006;36.180;2022-12-11T17:42:05;16.42;;;6.03;;
54665;SDS011;40566;50.006;36.180;2022-12-11T17:47:06;27.85;;;7.18;;
54665;SDS011;40566;50.006;36.180;2022-12-11T17:52:06;16.50;;;7.13;;
54665;SDS011;40566;50.006;36.180;2022-12-11T17:57:07;18.88;;;7.30;;
54665;SDS011;40566;50.006;36.180;2022-12-11T18:02:08;19.65;;;7.30;;
54665;SDS011;40566;50.006;36.180;2022-12-11T18:07:10;19.33;;;7.22;;
54665;SDS011;40566;50.006;36.180;2022-12-11T18:12:10;20.98;;;8.43;;
54665;SDS011;40566;50.006;36.180;2022-12-11T18:17:11;16.48;;;6.63;;
54665;SDS011;40566;50.006;36.180;2022-12-11T18:22:12;21.42;;;7.35;;
54665;SDS011;40566;50.006;36.180;2022-12-11T18:27:12;20.00;;;7.07;;
54665;SDS011;40566;50.006;36.180;2022-12-11T18:32:14;20.98;;;7.85;;
54665;SDS011;40566;50.006;36.180;2022-12-11T18:37:15;21.35;;;8.43;;
54665;SDS011;40566;50.006;36.180;2022-12-11T18:42:15;20.40;;;6.93;;
54665;SDS011;40566;50.006;36.180;2022-12-11T18:47:16;24.63;;;8.32;;
54665;SDS011;40566;50.006;36.180;2022-12-11T18:52:16;19.58;;;7.97;;
54665;SDS011;40566;50.006;36.180;2022-12-11T18:57:17;24.77;;;8.82;;
54665;SDS011;40566;50.006;36.180;2022-12-11T19:02:18;22.13;;;8.35;;
54665;SDS011;40566;50.006;36.180;2022-12-11T19:07:19;17.92;;;7.63;;
54665;SDS011;40566;50.006;36.180;2022-12-11T19:12:20;23.77;;;8.40;;
54665;SDS011;40566;50.006;36.180;2022-12-11T19:17:20;27.33;;;8.55;;
54665;SDS011;40566;50.006;36.180;2022-12-11T19:22:21;21.27;;;7.88;;
54665;SDS011;40566;50.006;36.180;2022-12-11T19:27:21;18.10;;;7.45;;
54665;SDS011;40566;50.006;36.180;2022-12-11T19:32:24;21.38;;;7.95;;
54665;SDS011;40566;50.006;36.180;2022-12-11T19:37:25;22.75;;;8.35;;
54665;SDS011;40566;50.006;36.180;2022-12-11T19:42:25;21.15;;;8.05;;
54665;SDS011;40566;50.006;36.180;2022-12-11T19:47:26;29.20;;;8.75;;
54665;SDS011;40566;50.006;36.180;2022-12-11T19:52:27;24.58;;;8.10;;
54665;SDS011;40566;50.006;36.180;2022-12-11T19:57:29;21.88;;;9.63;;
54665;SDS011;40566;50.006;36.180;2022-12-11T20:02:31;19.48;;;7.55;;
54665;SDS011;40566;50.006;36.180;2022-12-11T20:07:31;23.77;;;8.40;;
54665;SDS011;40566;50.006;36.180;2022-12-11T20:12:32;21.27;;;8.93;;
54665;SDS011;40566;50.006;36.180;2022-12-11T20:17:33;24.10;;;8.48;;
54665;SDS011;40566;50.006;36.180;2022-12-11T20:22:35;22.27;;;7.88;;
54665;SDS011;40566;50.006;36.180;2022-12-11T20:27:36;23.35;;;8.93;;
54665;SDS011;40566;50.006;36.180;2022-12-11T20:32:38;27.50;;;9.15;;
54665;SDS011;40566;50.006;36.180;2022-12-11T20:37:39;23.92;;;8.77;;
54665;SDS011;40566;50.006;36.180;2022-12-11T20:42:39;22.58;;;8.90;;
54665;SDS011;40566;50.006;36.180;2022-12-11T20:47:40;28.83;;;9.65;;
54665;SDS011;40566;50.006;36.180;2022-12-11T20:52:41;26.90;;;8.25;;
54665;SDS011;40566;50.006;36.180;2022-12-11T20:57:41;22.42;;;8.75;;
54665;SDS011;40566;50.006;36.180;2022-12-11T21:02:42;22.27;;;8.00;;
54665;SDS011;40566;50.006;36.180;2022-12-11T21:07:43;25.42;;;9.85;;
54665;SDS011;40566;50.006;36.180;2022-12-11T21:12:43;19.20;;;7.60;;
54665;SDS011;40566;50.006;36.180;2022-12-11T21:17:44;23.27;;;8.68;;
54665;SDS011;40566;50.006;36.180;2022-12-11T21:22:44;23.63;;;8.98;;
54665;SDS011;40566;50.006;36.180;2022-12-11T21:27:45;23.67;;;10.00;;
54665;SDS011;40566;50.006;36.180;2022-12-11T21:32:46;26.25;;;9.32;;
54665;SDS011;40566;50.006;36.180;2022-12-11T21:37:46;20.50;;;7.78;;
54665;SDS011;40566;50.006;36.180;2022-12-11T21:42:47;21.05;;;8.05;;
54665;SDS011;40566;50.006;36.180;2022-12-11T21:47:48;25.63;;;9.05;;
54665;SDS011;40566;50.006;36.180;2022-12-11T21:52:48;24.95;;;8.77;;
54665;SDS011;40566;50.006;36.180;2022-12-11T21:57:49;26.42;;;9.70;;
54665;SDS011;40566;50.006;36.180;2022-12-11T22:02:50;27.30;;;9.82;;
54665;SDS011;40566;50.006;36.180;2022-12-11T22:07:50;24.02;;;8.20;;
54665;SDS011;40566;50.006;36.180;2022-12-11T22:12:51;33.28;;;12.02;;
54665;SDS011;40566;50.006;36.180;2022-12-11T22:17:51;36.05;;;12.63;;
54665;SDS011;40566;50.006;36.180;2022-12-11T22:22:52;26.67;;;9.98;;
54665;SDS011;40566;50.006;36.180;2022-12-11T22:27:53;33.80;;;9.95;;
54665;SDS011;40566;50.006;36.180;2022-12-11T22:32:53;28.75;;;10.57;;
54665;SDS011;40566;50.006;36.180;2022-12-11T22:37:54;30.77;;;11.40;;
54665;SDS011;40566;50.006;36.180;2022-12-11T22:42:54;27.05;;;9.18;;
54665;SDS011;40566;50.006;36.180;2022-12-11T22:47:55;30.08;;;8.60;;
54665;SDS011;40566;50.006;36.180;2022-12-11T22:52:56;28.42;;;9.30;;
54665;SDS011;40566;50.006;36.180;2022-12-11T22:57:56;36.00;;;10.48;;
54665;SDS011;40566;50.006;36.180;2022-12-11T23:02:57;24.20;;;8.52;;
54665;SDS011;40566;50.006;36.180;2022-12-11T23:07:57;37.00;;;10.00;;
54665;SDS011;40566;50.006;36.180;2022-12-11T23:12:58;29.85;;;9.48;;
54665;SDS011;40566;50.006;36.180;2022-12-11T23:17:58;26.30;;;9.35;;
54665;SDS011;40566;50.006;36.180;2022-12-11T23:22:59;30.85;;;9.23;;
54665;SDS011;40566;50.006;36.180;2022-12-11T23:28:00;29.73;;;9.90;;
54665;SDS011;40566;50.006;36.180;2022-12-11T23:33:00;22.23;;;9.50;;
54665;SDS011;40566;50.006;36.180;2022-12-11T23:38:01;35.65;;;9.95;;
54665;SDS011;40566;50.006;36.180;2022-12-11T23:43:02;25.50;;;9.38;;
54665;SDS011;40566;50.006;36.180;2022-12-11T23:48:02;30.73;;;9.80;;
54665;SDS011;40566;50.006;36.180;2022-12-11T23:53:03;33.60;;;10.65;;
54665;SDS011;40566;50.006;36.180;2022-12-11T23:58:04;26.20;;;9.25;;
